Highlands Peak, California Weather observations

Data are for observation ending at time listed.
 Day   Time    Ave.   Ave.  Ave.  Vector   Max.   Stn.    Total    Solar   Ave.  
  of    of     Air    Rel.  Wind   Wind    Wind   Baro.  Precip.   Rad.    Soil  
Year   Day     Temp.  Hum.  Speed  Dir.    Gust   Pres.                    Temp. 
2014   (PST)    F      %     mph   deg.    mph     mb.     in.     W/m2     F   
------------------------------------------------------------------------------
 240    9:50   73.0    17    3.2   266      5.0   932.3    0.00     862    73.5
 240   10:00   73.6    17    2.6   275      4.3   932.2    0.00     882    73.7
 240   10:10   73.6    20    3.2   270      4.7   932.2    0.00     901    74.0
 240   10:20   74.6    18    3.2   272      5.0   932.2    0.00     921    74.2
 240   10:30   74.9    18    2.9   275      4.9   932.2    0.00     937    74.5
 240   10:40   74.6    20    3.1   269      5.2   932.2    0.00     949    74.8
 240   10:50   75.1    22    3.1   276      5.2   932.1    0.00     962    75.1
 240   11:00   74.7    25    3.8   274      5.7   932.0    0.00     973    75.4
 240   11:10   75.1    24    3.8   275      6.1   932.0    0.00     983    75.7
 240   11:20   75.2    22    4.3   274      6.2   932.0    0.00     989    76.1
 240   11:30   75.1    22    4.4   279      6.8   932.0    0.00     995    76.4
 240   11:40   76.1    22    4.4   280      6.4   931.9    0.00    1000    76.7
 240   11:50   75.6    22    4.0   283      7.1   931.8    0.00    1004    77.0
 240   12:00   75.8    21    4.4   278      7.0   931.7    0.00    1005    77.4
 240   12:10   75.7    18    4.4   277      6.2   931.7    0.00    1004    77.8
 240   12:20   75.8    19    4.7   280      6.8   931.6    0.00    1002    78.1
 240   12:30   75.6    22    4.5   284      6.9   931.5    0.00     998    78.5
 240   12:40   75.4    22    4.9   274      7.2   931.4    0.00     992    78.9
 240   12:50   76.0    18    5.5   275      8.9   931.4    0.00     984    79.2
 240   13:00   75.3    17    5.9   276      8.2   931.5    0.00     975    79.7
 240   13:10   75.5    16    5.6   275      8.0   931.5    0.00     964    80.1
 240   13:20   75.6    16    5.8   282      7.8   931.5    0.00     952    80.5
 240   13:30   75.4    17    5.8   274      8.0   931.4    0.00     937    80.9
 240   13:40   75.1    19    5.8   277      8.0   931.3    0.00     920    81.4
 240   13:50   74.6    23    6.2   281      8.5   931.3    0.00     902    81.9
 240   14:00   73.7    24    6.5   284     10.3   931.3    0.00     884    82.4
 240   14:10   73.9    23    6.2   276      9.5   931.2    0.00     838    82.9
 240   14:20   74.5    24    6.0   289      9.2   931.1    0.00     842    83.4
 240   14:30   74.9    23    6.0   283      8.8   931.0    0.00     817    83.8
 240   14:40   76.0    22    5.9   280      8.6   931.0    0.00     792    84.3
 240   14:50   75.1    23    5.6   279      8.8   930.9    0.00     765    84.7
 240   15:00   76.1    24    6.4   279     10.4   930.9    0.00     739    85.1
 240   15:10   75.5    22    6.6   283     11.6   930.8    0.00     710    85.5
 240   15:20   74.9    19    5.9   292     11.5   930.7    0.00     679    85.9
 240   15:30   76.7    16    5.7   293      9.2   930.7    0.00     648    86.2
 240   15:40   78.2    16    4.0   278      7.2   930.5    0.00     614    86.5
 240   15:50   79.1    16    4.4   268      7.5   930.4    0.00     581    86.8
 240   16:00   78.5    19    5.4   269      8.3   930.2    0.00     548    87.1
 240   16:10   77.4    21    5.9   280      9.9   930.2    0.00     514    87.3
 240   16:20   75.8    20    6.0   286     10.5   930.1    0.00     477    87.6
 240   16:30   76.6    20    5.6   288      8.7   930.1    0.00     440    87.8
 240   16:40   75.9    19    6.2   296      9.9   930.1    0.00     403    88.0
 240   16:50   75.6    16    7.8   298     11.0   930.0    0.00     366    88.1
 240   17:00   74.7    17    4.7   290      8.5   930.0    0.00     328    88.3
 240   17:10   75.3    16    4.9   292      7.5   929.9    0.00     289    88.4
 240   17:20   76.0    16    4.6   292      6.9   929.9    0.00     249    88.5
 240   17:30   75.9    17    4.6   298      8.5   929.8    0.00     215    88.5
 240   17:40   75.9    14    7.4   306     13.1   929.8    0.00     179    88.5
 240   17:50   74.5    12    7.6   314     11.5   929.6    0.00     146    88.5
 240   18:00   74.3    12    7.3   302     11.8   929.6    0.00     116    88.5
 240   18:10   73.8    14    4.7   301      8.3   929.5    0.00      87    88.5
 240   18:20   74.2    14    1.6   288      2.7   929.4    0.00      58    88.4
 240   18:30   74.0    14    1.8   274      3.4   929.4    0.00      32    88.3
 240   18:40   72.8    14    2.6   287      3.8   929.4    0.00      14    88.2
 240   18:50   72.7    14    2.3    23      3.1   929.4    0.00       3    88.0
 240   19:00   73.8    18    2.7    35      3.8   929.4    0.00       1    87.9
 240   19:10   74.8    17    2.0   309      2.8   929.4    0.00       0    87.7
 240   19:20   73.7    15    0.7   256      2.0   929.5    0.00       0    87.5
 240   19:30   73.2    17    2.0    99      4.7   929.5    0.00       0    87.1
 240   19:40   73.3    19    3.1    93      5.4   929.6    0.00       0    86.8
 240   19:50   74.3    18    0.9   205      2.9   929.6    0.00       0    86.6
 240   20:00   72.3    18    2.1   107      4.2   929.8    0.00       0    86.5
 240   20:10   72.2    15    3.4   115      3.7   929.8    0.00       0    86.0
 240   20:20   73.3    19    3.1   118      4.4   929.9    0.00       0    85.6
 240   20:30   73.7    18    3.2   115      4.1   929.9    0.00       0    85.4
 240   20:40   73.1    20    4.2    99      6.3   929.9    0.00       0    85.2
 240   20:50   73.8    19    2.9    74      6.1   929.9    0.00       0    85.1
 240   21:00   75.4    18    1.9    87      3.9   929.9    0.00       0    85.0
 240   21:10   74.6    19    3.5    94      5.0   929.9    0.00       0    84.7
 240   21:20   74.6    19    3.8    92      5.6   929.9    0.00       0    84.4
 240   21:30   74.8    18    5.8    89      9.3   929.9    0.00       0    84.2
 240   21:40   73.9    19    6.1    71      9.2   929.9    0.00       0    84.0
 240   21:50   75.2    17    4.6    41      6.1   929.9    0.00       0    84.0
 240   22:00   74.6    18    3.9    18      5.3   929.8    0.00       0    83.8
 240   22:10   73.6    18    6.1    93      8.6   929.7    0.00       0    83.3
 240   22:20   73.1    18    6.0    77      9.3   929.7    0.00       0    83.0
 240   22:30   74.0    17    6.6    74      9.3   929.7    0.00       0    83.0
 240   22:40   73.9    17    5.7    59      7.0   929.7    0.00       0    82.9
 240   22:50   73.9    17    7.3    68      9.5   929.6    0.00       0    82.8
 240   23:00   72.7    18    7.5    87     11.0   929.6    0.00       0    82.4
 240   23:10   74.0    18    8.0    85     10.2   929.5    0.00       0    81.7
 240   23:20   76.1    17    5.8    79      8.9   929.5    0.00       0    81.6
 240   23:30   75.5    17    5.5    80      8.7   929.5    0.00       0    81.5
 240   23:40   76.1    17    3.0   112      4.7   929.5    0.00       0    81.3
 240   23:50   76.8    17    3.9   137      4.6   929.5    0.00       0    80.6
 241    0:00   76.4    17    4.8   120      6.0   929.5    0.00       0    80.2
 241    0:10   77.1    17    3.6   141      5.6   929.4    0.00       0    79.8
 241    0:20   77.7    16    4.1   154      5.5   929.3    0.00       0    79.4
 241    0:30   77.3    16    2.9   142      4.5   929.3    0.00       0    79.4
 241    0:40   77.1    17    1.1   132      3.7   929.3    0.00       0    79.5
 241    0:50   77.2    16    1.1   121      2.6   929.2    0.00       0    79.4
 241    1:00   76.8    17    3.1    90      4.5   929.1    0.00       0    79.4
 241    1:10   76.7    17    4.4    91      5.9   929.1    0.00       0    79.2
 241    1:20   76.3    18    3.7    87      6.0   929.0    0.00       0    79.1
 241    1:30   77.3    16    1.1   171      3.6   929.0    0.00       0    79.1
 241    1:40   77.3    16    3.1   269      4.2   928.9    0.00       0    79.0
 241    1:50   77.1    17    2.1   278      2.6   928.9    0.00       0    78.9
 241    2:00   77.1    17    1.8   309      3.2   929.0    0.00       0    78.8
 241    2:10   76.3    18    3.7    73      5.2   928.9    0.00       0    78.7
 241    2:20   75.8    18    4.3    81      5.8   928.8    0.00       0    78.5
 241    2:30   75.4    19    5.2    85      6.3   928.7    0.00       0    78.3
 241    2:40   76.2    18    3.1    63      4.9   928.7    0.00       0    78.1
 241    2:50   75.2    19    5.2    68      7.9   928.7    0.00       0    78.1
 241    3:00   74.4    20    5.0    82      6.4   928.6    0.00       0    78.0
 241    3:10   74.9    20    4.0    24      5.3   928.6    0.00       0    78.0
 241    3:20   74.7    22    2.9   313      4.9   928.6    0.00       0    77.9
 241    3:30   73.7    26    3.3    19      5.3   928.6    0.00       0    77.8
 241    3:40   74.0    22    2.4    90      5.0   928.5    0.00       0    77.5
 241    3:50   74.9    22    2.3    11      4.1   928.5    0.00       0    77.5
 241    4:00   75.3    22    1.4    24      2.3   928.6    0.00       0    77.4
 241    4:10   75.4    23    1.3    45      3.1   928.5    0.00       0    77.3
 241    4:20   75.5    23    0.6    91      1.9   928.5    0.00       0    77.1
 241    4:30   75.6    25    1.2   295      2.0   928.5    0.00       0    77.0
 241    4:40   75.6    23    1.4   357      2.1   928.4    0.00       0    76.9
 241    4:50   75.4    23    0.8   302      1.6   928.4    0.00       0    76.8
 241    5:00   75.1    23    0.1   268      1.0   928.4    0.00       0    76.5
 241    5:10   75.3    24    1.1   221      1.6   928.4    0.00       0    76.4
 241    5:20   75.2    25    1.3   197      3.0   928.5    0.00       0    76.3
 241    5:30   75.1    23    3.1   149      3.8   928.6    0.00       1    75.9
 241    5:40   75.1    25    3.2   139      3.7   928.7    0.00       4    75.6
 241    5:50   75.0    25    1.3   122      3.5   928.9    0.00       8    75.6
 241    6:00   74.7    24    1.1   286      2.9   928.9    0.00      13    75.7
 241    6:10   74.6    20    3.3   106      5.2   928.9    0.00      18    75.5
 241    6:20   75.5    20    3.4   110      5.0   928.9    0.00      20    75.2
 241    6:30   76.7    20    4.3   134      7.1   928.8    0.00      51    75.0
 241    6:40   78.3    17    1.7   131      4.6   928.8    0.00     182    75.0
 241    6:50   79.5    16    2.0    94      3.9   928.9    0.00     247    75.0
 241    7:00   79.4    14    2.8   336      4.3   929.0    0.00     290    75.0
 241    7:10   79.6    15    1.4   306      2.3   929.1    0.00     331    75.0
 241    7:20   78.9    18    1.5   230      2.4   929.1    0.00     375    75.1
 241    7:30   78.6    17    1.8   287      2.6   929.1    0.00     420    75.0
 241    7:40   79.7    16    0.9    29      2.7   929.1    0.00     458    75.1
 241    7:50   80.6    15    1.5   324      3.6   929.1    0.00     474    75.1
 241    8:00   80.5    18    1.5   288      2.9   929.1    0.00     532    75.1
 241    8:10   79.8    19    2.9   258      4.7   929.2    0.00     573    75.2
 241    8:20   80.1    19    2.1   254      3.4   929.2    0.00     606    75.3
 241    8:30   80.5    18    2.5   261      4.0   929.3    0.00     638    75.3
 241    8:40   80.7    18    3.0   262      4.6   929.3    0.00     674    75.5
 241    8:50   80.5    18    4.9   277      6.5   929.4    0.00     710    75.7
 241    9:00   79.5    19    4.2   277      6.0   929.5    0.00     691    75.9
 241    9:10   80.2    19    4.2   281      6.4   929.5    0.00     780    76.0
 241    9:20   80.7    18    4.8   263      8.5   929.5    0.00     745    76.2
 241    9:30   80.6    18    5.4   276      8.0   929.6    0.00     863    76.5
 241    9:40   81.5    16    4.2   266      7.5   929.5    0.00     817    76.7

Return to Highlands Peak graphs page.


Western Regional Climate Center,wrcc@dri.edu